Time;durP1;ratioP1;P1;durP2;ratioP2;P2;SDS_P1;SDS_P2;PMS_P1;PMS_P2;Temp;Humidity;BMP_temperature;BMP_pressure;BME280_temperature;BME280_humidity;BME280_pressure;Samples;Min_cycle;Max_cycle;Signal;HPM_P1;HPM_P2
2023/02/04 00:00:53;;;;;;;28.23;6.50;;;8.30;99.90;;;;;;6304475;22;37855;-75
2023/02/04 00:03:19;;;;;;;23.13;5.20;;;8.20;99.90;;;;;;6305150;22;38348;-75
2023/02/04 00:05:45;;;;;;;32.27;6.20;;;8.30;99.90;;;;;;6304834;22;37459;-75
2023/02/04 00:08:11;;;;;;;29.07;6.63;;;8.30;99.90;;;;;;6311345;22;37866;-75
2023/02/04 00:10:38;;;;;;;27.73;6.70;;;8.30;99.90;;;;;;6338370;22;38952;-75
2023/02/04 00:13:04;;;;;;;23.73;6.73;;;8.30;99.90;;;;;;6336104;22;38674;-75
2023/02/04 00:15:30;;;;;;;36.43;7.33;;;8.30;99.90;;;;;;6330816;22;38321;-75
2023/02/04 00:17:56;;;;;;;40.33;8.53;;;8.40;99.90;;;;;;6336878;22;35956;-75
2023/02/04 00:20:23;;;;;;;30.67;7.97;;;8.40;99.90;;;;;;6334462;22;37461;-75
2023/02/04 00:22:50;;;;;;;34.33;8.53;;;8.40;99.90;;;;;;6310489;22;37164;-75
2023/02/04 00:25:16;;;;;;;33.57;9.47;;;8.40;99.90;;;;;;6335150;22;38549;-75
2023/02/04 00:27:42;;;;;;;36.03;9.60;;;8.40;99.90;;;;;;6337023;22;35954;-75
2023/02/04 00:30:09;;;;;;;30.73;9.40;;;8.40;99.90;;;;;;6337055;22;39878;-76
2023/02/04 00:32:35;;;;;;;30.67;9.00;;;8.40;99.90;;;;;;6311654;22;37250;-75
2023/02/04 00:35:03;;;;;;;34.07;9.67;;;8.40;99.90;;;;;;6336639;22;37014;-75
2023/02/04 00:37:30;;;;;;;31.50;9.73;;;8.40;99.90;;;;;;6335337;22;35585;-75
2023/02/04 00:39:56;;;;;;;29.13;9.40;;;8.50;99.90;;;;;;6339317;22;38812;-75
2023/02/04 00:42:22;;;;;;;29.27;9.17;;;8.50;99.90;;;;;;6336219;22;37746;-75
2023/02/04 00:44:49;;;;;;;41.63;11.07;;;8.40;99.90;;;;;;6338731;22;37989;-75
2023/02/04 00:47:15;;;;;;;32.13;10.03;;;8.40;99.90;;;;;;6334997;22;36236;-75
2023/02/04 00:49:41;;;;;;;29.07;9.90;;;8.50;99.90;;;;;;6336457;22;40020;-75
2023/02/04 00:52:07;;;;;;;25.77;8.83;;;8.50;99.90;;;;;;6333984;22;37335;-75
2023/02/04 00:54:33;;;;;;;38.43;9.70;;;8.40;99.90;;;;;;6338006;22;39524;-75
2023/02/04 00:56:59;;;;;;;36.47;9.37;;;8.50;99.90;;;;;;6333521;22;37022;-75
2023/02/04 00:59:25;;;;;;;31.97;9.93;;;8.50;99.90;;;;;;6333842;22;38780;-75
2023/02/04 01:01:51;;;;;;;30.77;9.70;;;8.40;99.90;;;;;;6336277;22;38486;-75
2023/02/04 01:04:17;;;;;;;30.10;8.93;;;8.50;99.90;;;;;;6308841;22;37018;-75
2023/02/04 01:06:43;;;;;;;38.20;11.77;;;8.50;99.90;;;;;;6337077;22;36082;-75
2023/02/04 01:09:10;;;;;;;28.67;8.47;;;8.50;99.90;;;;;;6335604;22;38753;-75
2023/02/04 01:11:37;;;;;;;26.13;7.10;;;8.50;99.90;;;;;;6333248;22;37401;-75
2023/02/04 01:14:03;;;;;;;34.97;7.47;;;8.50;99.90;;;;;;6335747;22;37958;-75
2023/02/04 01:16:29;;;;;;;31.10;8.03;;;8.50;99.90;;;;;;6337065;22;37076;-75
2023/02/04 01:18:55;;;;;;;27.10;6.53;;;8.50;99.90;;;;;;6334226;22;38535;-75
2023/02/04 01:21:23;;;;;;;31.23;7.20;;;8.50;99.90;;;;;;6336200;22;38079;-75
2023/02/04 01:23:49;;;;;;;38.60;7.73;;;8.50;99.90;;;;;;6334359;22;38178;-74
2023/02/04 01:26:16;;;;;;;27.83;6.43;;;8.50;99.90;;;;;;6335803;22;37366;-75
2023/02/04 01:28:43;;;;;;;36.20;8.10;;;8.50;99.90;;;;;;6309631;22;38488;-75
2023/02/04 01:31:09;;;;;;;38.90;8.50;;;8.50;99.90;;;;;;6307255;22;37694;-75
2023/02/04 01:33:35;;;;;;;33.93;8.50;;;8.50;99.90;;;;;;6336279;22;38188;-75
2023/02/04 01:36:01;;;;;;;37.10;7.80;;;8.50;99.90;;;;;;6334686;22;37975;-75
2023/02/04 01:38:28;;;;;;;32.23;7.63;;;8.50;99.90;;;;;;6337639;22;47609;-75
2023/02/04 01:40:54;;;;;;;35.90;8.63;;;8.50;99.90;;;;;;6338215;22;38360;-75
2023/02/04 01:43:22;;;;;;;25.80;8.10;;;8.50;99.90;;;;;;6337543;22;38801;-75
2023/02/04 01:45:49;;;;;;;29.10;7.67;;;8.50;99.90;;;;;;6308896;22;37409;-75
2023/02/04 01:48:19;;;;;;;29.80;7.20;;;8.50;99.90;;;;;;6310214;22;39772;-75
2023/02/04 01:50:50;;;;;;;32.63;7.53;;;8.50;99.90;;;;;;6310565;22;37702;-75
2023/02/04 01:53:23;;;;;;;32.03;8.37;;;8.50;99.90;;;;;;6337757;22;39209;-75
2023/02/04 01:55:51;;;;;;;26.23;7.57;;;8.50;99.90;;;;;;6339263;22;39145;-75
2023/02/04 01:58:18;;;;;;;23.23;6.70;;;8.50;99.90;;;;;;6338390;22;38585;-74
2023/02/04 02:03:20;;;;;;;28.57;8.30;;;8.60;99.90;;;;;;6327109;22;20027;-77
2023/02/04 02:05:52;;;;;;;31.17;9.20;;;8.50;99.90;;;;;;6366584;22;37045;-78
2023/02/04 02:08:19;;;;;;;41.47;9.57;;;8.60;99.90;;;;;;6342194;22;20076;-77
2023/02/04 02:10:47;;;;;;;34.23;8.43;;;8.50;99.90;;;;;;6368020;22;37363;-77
2023/02/04 02:13:18;;;;;;;26.90;7.23;;;8.60;99.90;;;;;;6369113;22;37965;-77
2023/02/04 02:15:45;;;;;;;38.87;6.67;;;8.50;99.90;;;;;;6339870;22;36255;-78
2023/02/04 02:18:11;;;;;;;29.33;6.33;;;8.50;99.90;;;;;;6339895;22;38341;-77
2023/02/04 02:20:38;;;;;;;36.40;5.93;;;8.50;99.90;;;;;;6338095;22;37392;-77
2023/02/04 02:23:25;;;;;;;28.57;6.27;;;8.50;99.90;;;;;;6339629;22;37116;-77
2023/02/04 02:25:52;;;;;;;38.70;6.77;;;8.50;99.90;;;;;;6371714;22;37413;-77
2023/02/04 02:28:21;;;;;;;33.83;5.43;;;8.50;99.90;;;;;;6340921;22;39197;-76
2023/02/04 02:30:48;;;;;;;34.77;6.27;;;8.40;99.90;;;;;;6372769;22;38545;-78
2023/02/04 02:33:18;;;;;;;31.93;5.67;;;8.50;99.90;;;;;;6374068;22;38222;-77
2023/02/04 02:35:47;;;;;;;26.07;6.53;;;8.50;99.90;;;;;;6376521;22;37390;-78
2023/02/04 02:38:18;;;;;;;32.20;5.23;;;8.50;99.90;;;;;;6378421;22;39741;-78
2023/02/04 02:40:45;;;;;;;30.03;5.67;;;8.50;99.90;;;;;;6349762;22;36651;-78
2023/02/04 02:43:20;;;;;;;25.03;5.40;;;8.50;99.90;;;;;;6345401;22;37202;-77
2023/02/04 02:45:47;;;;;;;20.07;3.73;;;8.50;99.90;;;;;;6345232;22;36098;-77
2023/02/04 02:48:13;;;;;;;18.17;4.00;;;8.50;99.90;;;;;;6373599;22;39444;-77
2023/02/04 02:50:40;;;;;;;25.07;4.13;;;8.50;99.90;;;;;;6371976;22;38572;-77
2023/02/04 02:53:12;;;;;;;28.13;4.33;;;8.50;99.90;;;;;;6344309;22;36884;-78
2023/02/04 02:55:39;;;;;;;21.83;3.43;;;8.50;99.90;;;;;;6372445;22;38240;-77
2023/02/04 02:58:13;;;;;;;23.90;4.13;;;8.50;99.90;;;;;;6343780;22;37677;-77
2023/02/04 03:00:39;;;;;;;26.27;4.27;;;8.50;99.90;;;;;;6372498;22;38581;-77
2023/02/04 03:03:14;;;;;;;24.40;3.27;;;8.50;99.90;;;;;;6368365;22;38328;-78
2023/02/04 03:05:43;;;;;;;30.57;4.40;;;8.50;99.90;;;;;;6342229;22;35951;-77
2023/02/04 03:08:12;;;;;;;29.53;4.37;;;8.50;99.90;;;;;;6343246;22;37539;-78
2023/02/04 03:10:39;;;;;;;21.20;4.37;;;8.50;99.90;;;;;;6343985;22;37273;-77
2023/02/04 03:13:05;;;;;;;29.40;4.47;;;8.50;99.90;;;;;;6369220;22;39189;-77
2023/02/04 03:15:32;;;;;;;33.60;5.23;;;8.50;99.90;;;;;;6339588;22;36220;-78
2023/02/04 03:17:59;;;;;;;27.97;5.00;;;8.50;99.90;;;;;;6343819;22;39018;-77
2023/02/04 03:20:28;;;;;;;30.53;5.47;;;8.50;99.90;;;;;;6371208;22;40432;-77
2023/02/04 03:22:55;;;;;;;28.23;4.90;;;8.50;99.90;;;;;;6347564;22;36727;-77
2023/02/04 03:25:25;;;;;;;27.40;5.57;;;8.50;99.90;;;;;;6344230;22;35931;-77
2023/02/04 03:27:54;;;;;;;29.53;5.10;;;8.50;99.90;;;;;;6372012;22;38797;-78
2023/02/04 03:30:21;;;;;;;20.60;4.17;;;8.50;99.90;;;;;;6340506;22;38651;-77
2023/02/04 03:32:48;;;;;;;31.43;4.13;;;8.50;99.90;;;;;;6377308;22;37752;-77
2023/02/04 03:35:14;;;;;;;24.77;4.30;;;8.50;99.90;;;;;;6373609;22;38219;-78
2023/02/04 03:37:40;;;;;;;33.70;5.20;;;8.50;99.90;;;;;;6373151;22;38373;-78
2023/02/04 03:40:07;;;;;;;22.13;4.30;;;8.50;99.90;;;;;;6375042;22;39508;-78
2023/02/04 03:42:33;;;;;;;29.50;5.00;;;8.40;99.90;;;;;;6378014;22;39171;-78
2023/02/04 03:44:59;;;;;;;24.00;3.93;;;8.40;99.90;;;;;;6374789;22;36344;-77
2023/02/04 03:47:25;;;;;;;29.03;5.23;;;8.40;99.90;;;;;;6374947;22;39313;-78
2023/02/04 03:49:52;;;;;;;26.33;4.43;;;8.30;99.90;;;;;;6376314;22;38394;-77
2023/02/04 03:52:19;;;;;;;23.60;4.57;;;8.30;99.90;;;;;;6347496;22;38513;-78
2023/02/04 03:54:45;;;;;;;24.47;4.20;;;8.40;99.90;;;;;;6377730;22;38215;-78
2023/02/04 03:57:12;;;;;;;23.13;4.23;;;8.40;99.90;;;;;;6344231;22;37717;-78
2023/02/04 03:59:38;;;;;;;30.30;4.83;;;8.40;99.90;;;;;;6348310;22;37677;-78
2023/02/04 04:02:04;;;;;;;25.13;3.90;;;8.40;99.90;;;;;;6377986;22;38659;-78
2023/02/04 04:04:30;;;;;;;24.77;4.33;;;8.40;99.90;;;;;;6378932;22;37085;-78
2023/02/04 04:06:56;;;;;;;14.77;3.97;;;8.30;99.90;;;;;;6349151;22;37532;-77
2023/02/04 04:09:22;;;;;;;24.40;4.50;;;8.30;99.90;;;;;;6374722;22;37296;-77
2023/02/04 04:11:48;;;;;;;33.40;4.13;;;8.30;99.90;;;;;;6376488;22;39018;-78
2023/02/04 04:14:14;;;;;;;24.70;4.17;;;8.30;99.90;;;;;;6347007;22;35939;-77
2023/02/04 04:16:40;;;;;;;20.70;4.37;;;8.30;99.90;;;;;;6348131;22;37481;-77
2023/02/04 04:19:07;;;;;;;25.47;4.93;;;8.30;99.90;;;;;;6374948;22;39113;-77
2023/02/04 04:21:33;;;;;;;20.00;3.83;;;8.30;99.90;;;;;;6373539;22;38771;-77
2023/02/04 04:23:59;;;;;;;26.47;5.33;;;8.30;99.90;;;;;;6374458;22;38535;-78
2023/02/04 04:26:25;;;;;;;21.60;5.17;;;8.30;99.90;;;;;;6371450;22;37733;-77
2023/02/04 04:28:51;;;;;;;26.47;5.80;;;8.40;99.90;;;;;;6373715;22;38339;-78
2023/02/04 04:31:17;;;;;;;27.67;5.83;;;8.40;99.90;;;;;;6370926;22;37788;-77
2023/02/04 04:33:43;;;;;;;25.77;4.73;;;8.40;99.90;;;;;;6345865;22;36360;-77
2023/02/04 04:36:09;;;;;;;34.50;5.87;;;8.40;99.90;;;;;;6371578;22;38240;-77
2023/02/04 04:38:35;;;;;;;29.17;5.93;;;8.40;99.90;;;;;;6374414;22;38251;-77
2023/02/04 04:41:01;;;;;;;27.33;5.83;;;8.40;99.90;;;;;;6370888;22;36963;-77
2023/02/04 04:43:27;;;;;;;21.73;5.53;;;8.40;99.90;;;;;;6374033;22;47414;-77
2023/02/04 04:45:53;;;;;;;24.53;5.37;;;8.40;99.90;;;;;;6347257;22;38897;-77
2023/02/04 04:48:20;;;;;;;22.37;4.63;;;8.40;99.90;;;;;;6376124;22;39371;-77
2023/02/04 04:50:46;;;;;;;26.23;5.90;;;8.40;99.90;;;;;;6376974;22;39414;-77
2023/02/04 04:53:12;;;;;;;29.17;6.10;;;8.50;99.90;;;;;;6374804;22;36557;-77
2023/02/04 04:55:39;;;;;;;23.40;5.33;;;8.50;99.90;;;;;;6348656;22;37566;-77
2023/02/04 04:58:06;;;;;;;17.83;5.40;;;8.50;99.90;;;;;;6347638;22;39259;-77
2023/02/04 05:00:32;;;;;;;26.80;6.57;;;8.50;99.90;;;;;;6377119;22;38647;-77
2023/02/04 05:02:59;;;;;;;27.63;5.70;;;8.50;99.90;;;;;;6376564;22;37822;-77
2023/02/04 05:05:25;;;;;;;30.40;6.20;;;8.50;99.90;;;;;;6347569;22;37875;-77
2023/02/04 05:07:52;;;;;;;23.23;6.33;;;8.50;99.90;;;;;;6378693;22;38378;-77
2023/02/04 05:10:19;;;;;;;36.13;6.87;;;8.50;99.90;;;;;;6371323;22;37133;-77
2023/02/04 05:12:45;;;;;;;28.63;7.27;;;8.50;99.90;;;;;;6351266;22;36996;-78
2023/02/04 05:15:11;;;;;;;39.53;10.07;;;8.50;99.90;;;;;;6377279;22;39556;-77
2023/02/04 05:17:38;;;;;;;32.13;9.43;;;8.50;99.90;;;;;;6377677;22;38373;-78
2023/02/04 05:20:04;;;;;;;52.57;14.00;;;8.50;99.90;;;;;;6377054;22;38008;-77
2023/02/04 05:22:30;;;;;;;36.23;11.83;;;8.50;99.90;;;;;;6374751;22;49140;-77
2023/02/04 05:24:56;;;;;;;35.97;13.30;;;8.60;99.90;;;;;;6373498;22;38825;-77
2023/02/04 05:27:22;;;;;;;47.10;15.40;;;8.50;99.90;;;;;;6372040;22;37535;-78
2023/02/04 05:29:48;;;;;;;40.50;15.53;;;8.50;99.90;;;;;;6346939;22;37983;-78
2023/02/04 05:32:14;;;;;;;50.37;17.20;;;8.50;99.90;;;;;;6370621;22;36465;-78
2023/02/04 05:34:41;;;;;;;45.13;16.00;;;8.60;99.90;;;;;;6346941;22;39053;-78
2023/02/04 05:37:07;;;;;;;44.47;15.80;;;8.50;99.90;;;;;;6372135;22;39504;-77
2023/02/04 05:39:33;;;;;;;52.67;16.77;;;8.50;99.90;;;;;;6376519;22;37840;-77
2023/02/04 05:41:59;;;;;;;35.00;13.57;;;8.50;99.90;;;;;;6348938;22;36243;-77
2023/02/04 05:44:25;;;;;;;51.40;16.23;;;8.50;99.90;;;;;;6371403;22;39029;-77
2023/02/04 05:46:51;;;;;;;51.90;17.87;;;8.50;99.90;;;;;;6372160;22;38565;-78
2023/02/04 05:49:17;;;;;;;49.80;19.97;;;8.40;99.90;;;;;;6344609;22;36870;-77
2023/02/04 05:51:43;;;;;;;45.07;19.97;;;8.40;99.90;;;;;;6373430;22;36915;-77
2023/02/04 05:54:10;;;;;;;63.33;22.03;;;8.40;99.90;;;;;;6344382;22;38604;-78
2023/02/04 05:56:36;;;;;;;61.43;22.07;;;8.40;99.90;;;;;;6372145;22;37443;-77
2023/02/04 05:59:02;;;;;;;67.33;21.83;;;8.50;99.90;;;;;;6372499;22;39191;-77
2023/02/04 06:01:28;;;;;;;75.50;22.70;;;8.50;99.90;;;;;;6344903;22;37412;-78
2023/02/04 06:03:54;;;;;;;65.47;21.43;;;8.40;99.90;;;;;;6345443;22;38006;-77
2023/02/04 06:06:20;;;;;;;55.50;20.73;;;8.50;99.90;;;;;;6341206;22;37420;-78
2023/02/04 06:08:46;;;;;;;56.80;19.63;;;8.40;99.90;;;;;;6345956;22;37316;-78
2023/02/04 06:11:12;;;;;;;64.63;22.60;;;8.40;99.90;;;;;;6373923;22;37681;-78
2023/02/04 06:13:38;;;;;;;63.67;21.20;;;8.40;99.90;;;;;;6370978;22;39938;-78
2023/02/04 06:16:05;;;;;;;66.43;22.03;;;8.40;99.90;;;;;;6344077;22;37695;-77
2023/02/04 06:18:31;;;;;;;59.30;19.60;;;8.40;99.90;;;;;;6373430;22;39079;-77
2023/02/04 06:20:57;;;;;;;57.90;20.43;;;8.40;99.90;;;;;;6367326;22;36899;-77
2023/02/04 06:23:23;;;;;;;58.40;21.20;;;8.40;99.90;;;;;;6377709;22;38716;-77
2023/02/04 06:25:49;;;;;;;65.47;20.60;;;8.40;99.90;;;;;;6379752;22;38277;-77
2023/02/04 06:28:15;;;;;;;63.30;21.50;;;8.40;99.90;;;;;;6375193;22;37605;-78
2023/02/04 06:30:43;;;;;;;68.77;23.00;;;8.40;99.90;;;;;;6374498;22;36151;-77
2023/02/04 06:33:09;;;;;;;50.97;19.00;;;8.40;99.90;;;;;;6375094;22;38680;-77
2023/02/04 06:35:35;;;;;;;58.70;20.27;;;8.40;99.90;;;;;;6375681;22;39018;-77
2023/02/04 06:38:01;;;;;;;89.60;26.07;;;8.40;99.90;;;;;;6375131;22;38124;-77
2023/02/04 06:40:27;;;;;;;65.07;22.37;;;8.40;99.90;;;;;;6340025;22;36264;-77
2023/02/04 06:42:53;;;;;;;74.93;24.00;;;8.40;99.90;;;;;;6372041;22;38533;-78
2023/02/04 06:45:19;;;;;;;70.57;22.90;;;8.40;99.90;;;;;;6366336;22;38245;-78
2023/02/04 06:47:45;;;;;;;66.50;22.43;;;8.40;99.90;;;;;;6367488;22;37828;-78
2023/02/04 06:50:11;;;;;;;57.37;20.07;;;8.40;99.90;;;;;;6366073;22;37804;-77
2023/02/04 06:52:37;;;;;;;59.47;19.50;;;8.40;99.90;;;;;;6372264;22;38825;-77
2023/02/04 06:55:03;;;;;;;73.97;23.33;;;8.40;99.90;;;;;;6372980;22;38492;-77
2023/02/04 06:57:30;;;;;;;74.77;25.40;;;8.40;99.90;;;;;;6373486;22;48768;-77
2023/02/04 06:59:56;;;;;;;64.03;21.33;;;8.40;99.90;;;;;;6373496;22;37260;-77
2023/02/04 07:02:22;;;;;;;57.80;21.40;;;8.40;99.90;;;;;;6374449;22;38444;-77
2023/02/04 07:04:48;;;;;;;67.57;25.13;;;8.40;99.90;;;;;;6366452;22;39568;-77
2023/02/04 07:07:14;;;;;;;70.80;27.83;;;8.40;99.90;;;;;;6340178;22;37120;-77
2023/02/04 07:09:41;;;;;;;58.00;24.73;;;8.40;99.90;;;;;;6345141;22;38112;-79
2023/02/04 07:12:07;;;;;;;53.57;23.37;;;8.40;99.90;;;;;;6340800;22;37580;-77
2023/02/04 07:14:33;;;;;;;67.70;24.87;;;8.50;99.90;;;;;;6341848;22;38537;-77
2023/02/04 07:17:00;;;;;;;60.17;21.90;;;8.50;99.90;;;;;;6342423;22;38293;-78
2023/02/04 07:19:26;;;;;;;62.40;23.73;;;8.50;99.90;;;;;;6338175;22;38135;-77
2023/02/04 07:21:55;;;;;;;43.67;17.53;;;8.50;99.90;;;;;;6343411;22;38796;-77
2023/02/04 07:24:22;;;;;;;42.63;16.20;;;8.50;99.90;;;;;;6339719;22;38594;-78
2023/02/04 07:26:49;;;;;;;38.60;15.93;;;8.40;99.90;;;;;;6342633;22;39284;-77
2023/02/04 07:29:15;;;;;;;50.63;16.90;;;8.40;99.90;;;;;;6337732;22;36487;-76
2023/02/04 07:31:41;;;;;;;40.50;15.50;;;8.50;99.90;;;;;;6343415;22;46704;-77
2023/02/04 07:34:07;;;;;;;45.60;16.10;;;8.50;99.90;;;;;;6345539;22;38227;-77
2023/02/04 07:36:33;;;;;;;39.90;15.57;;;8.40;99.90;;;;;;6343495;22;38333;-78
2023/02/04 07:38:59;;;;;;;50.83;16.57;;;8.40;99.90;;;;;;6344899;22;37256;-78
2023/02/04 07:41:25;;;;;;;40.60;14.90;;;8.50;99.90;;;;;;6343579;22;38689;-78
2023/02/04 07:43:51;;;;;;;35.40;13.90;;;8.50;99.90;;;;;;6345441;22;37909;-77
2023/02/04 07:46:18;;;;;;;43.57;14.80;;;8.50;99.90;;;;;;6341592;22;36916;-80
2023/02/04 07:48:44;;;;;;;51.27;17.00;;;8.60;99.90;;;;;;6344453;22;37259;-79
2023/02/04 07:51:10;;;;;;;42.83;16.70;;;8.60;99.90;;;;;;6344056;22;39039;-78
2023/02/04 07:53:36;;;;;;;35.73;14.27;;;8.60;99.90;;;;;;6337568;22;38809;-78
2023/02/04 07:56:02;;;;;;;36.80;15.03;;;8.60;99.90;;;;;;6338163;22;37566;-78
2023/02/04 07:58:28;;;;;;;37.63;14.43;;;8.60;99.90;;;;;;6343341;22;37071;-81
2023/02/04 08:00:54;;;;;;;45.83;15.93;;;8.70;99.90;;;;;;6348961;22;39993;-80
2023/02/04 08:03:20;;;;;;;35.27;16.13;;;8.70;99.90;;;;;;6347528;22;37614;-81
2023/02/04 08:05:46;;;;;;;42.50;15.53;;;8.70;99.90;;;;;;6341619;22;40917;-79
2023/02/04 08:08:13;;;;;;;38.63;14.83;;;8.80;99.90;;;;;;6336369;22;37379;-80
2023/02/04 08:10:39;;;;;;;32.13;14.33;;;8.70;99.90;;;;;;6348726;22;39311;-79
2023/02/04 08:13:05;;;;;;;37.17;15.37;;;8.80;99.90;;;;;;6345682;22;37166;-79
2023/02/04 08:15:31;;;;;;;34.97;14.67;;;8.80;99.90;;;;;;6350044;22;38386;-79
2023/02/04 08:17:57;;;;;;;31.57;14.03;;;8.80;99.90;;;;;;6344595;22;36408;-79
2023/02/04 08:20:23;;;;;;;31.40;14.07;;;8.70;99.90;;;;;;6347606;22;38890;-81
2023/02/04 08:22:49;;;;;;;35.07;14.67;;;8.70;99.90;;;;;;6342203;22;39210;-80
2023/02/04 08:25:16;;;;;;;31.13;13.93;;;8.60;99.90;;;;;;6331610;22;38133;-81
2023/02/04 08:27:42;;;;;;;26.37;13.27;;;8.70;99.90;;;;;;6341302;22;36574;-81
2023/02/04 08:30:09;;;;;;;30.20;14.53;;;8.70;99.90;;;;;;6342555;22;39190;-81
2023/02/04 08:32:35;;;;;;;32.37;15.60;;;8.80;99.90;;;;;;6343735;22;38477;-80
2023/02/04 08:35:01;;;;;;;30.50;13.73;;;8.80;99.90;;;;;;6339969;22;38518;-82
2023/02/04 08:37:27;;;;;;;27.47;14.93;;;8.80;99.90;;;;;;6346098;22;38047;-77
2023/02/04 08:39:54;;;;;;;31.03;14.83;;;8.90;99.90;;;;;;6341884;22;37840;-77
2023/02/04 08:42:20;;;;;;;30.17;15.13;;;9.00;99.90;;;;;;6339553;22;38486;-77
2023/02/04 08:44:46;;;;;;;29.83;14.83;;;9.00;99.90;;;;;;6344426;22;38035;-77
2023/02/04 08:47:12;;;;;;;33.37;14.57;;;9.00;99.90;;;;;;6338047;22;36685;-79
2023/02/04 08:49:38;;;;;;;30.60;14.93;;;8.90;99.90;;;;;;6340779;22;37798;-80
2023/02/04 08:52:06;;;;;;;28.33;14.90;;;9.00;99.90;;;;;;6340682;22;37113;-79
2023/02/04 08:54:33;;;;;;;28.63;15.30;;;9.10;99.90;;;;;;6341582;22;37789;-78
2023/02/04 08:57:00;;;;;;;25.97;15.43;;;9.20;99.90;;;;;;6339824;22;37700;-77
2023/02/04 08:59:27;;;;;;;26.47;15.60;;;9.30;99.90;;;;;;6343882;22;39034;-78
2023/02/04 09:01:53;;;;;;;28.07;16.03;;;9.30;99.90;;;;;;6342375;22;38557;-78
2023/02/04 09:04:21;;;;;;;32.00;16.83;;;9.30;99.90;;;;;;6320299;22;37380;-77
2023/02/04 09:06:49;;;;;;;26.83;14.17;;;9.40;99.90;;;;;;6313486;22;37302;-78
2023/02/04 09:09:15;;;;;;;27.57;14.30;;;9.30;99.90;;;;;;6315521;22;40238;-77
2023/02/04 09:11:42;;;;;;;31.97;15.03;;;9.30;99.90;;;;;;6310388;22;39477;-75
2023/02/04 09:14:08;;;;;;;28.27;14.20;;;9.40;99.90;;;;;;6307234;22;38276;-76
2023/02/04 09:16:34;;;;;;;30.10;14.83;;;9.30;99.90;;;;;;6305855;22;37575;-76
2023/02/04 09:19:01;;;;;;;26.93;13.60;;;9.40;99.90;;;;;;6308533;22;38808;-76
2023/02/04 09:21:27;;;;;;;25.43;13.23;;;9.40;99.90;;;;;;6333113;22;47745;-76
2023/02/04 09:23:54;;;;;;;19.57;11.70;;;9.40;99.90;;;;;;6311277;22;36415;-77
2023/02/04 09:26:20;;;;;;;27.53;13.80;;;9.50;99.90;;;;;;6311382;22;37147;-76
2023/02/04 09:28:47;;;;;;;27.17;15.83;;;9.60;99.90;;;;;;6336822;22;39365;-77
2023/02/04 09:31:14;;;;;;;28.13;14.97;;;9.50;99.90;;;;;;6303923;22;38827;-77
2023/02/04 09:33:40;;;;;;;26.67;15.20;;;9.50;99.90;;;;;;6311356;22;37005;-76
2023/02/04 09:36:07;;;;;;;23.40;14.57;;;9.40;99.90;;;;;;6313017;22;36648;-76
2023/02/04 09:38:33;;;;;;;24.33;14.37;;;9.40;99.90;;;;;;6314968;22;39650;-77
2023/02/04 09:41:03;;;;;;;31.87;17.83;;;9.30;99.90;;;;;;6312752;22;38593;-76
2023/02/04 09:43:33;;;;;;;32.03;17.80;;;9.40;99.90;;;;;;6311080;22;49388;-77
2023/02/04 09:45:59;;;;;;;28.15;16.55;;;9.50;99.90;;;;;;6311183;22;36991;-76
2023/02/04 09:48:26;;;;;;;26.60;16.60;;;9.50;99.90;;;;;;6311033;22;38522;-76
2023/02/04 09:51:04;;;;;;;31.03;17.40;;;9.50;99.90;;;;;;6312052;22;38782;-76
2023/02/04 09:53:31;;;;;;;28.70;17.00;;;9.60;99.90;;;;;;6311792;22;48330;-76
2023/02/04 09:55:57;;;;;;;22.77;15.27;;;9.60;99.90;;;;;;6308765;22;37433;-76
2023/02/04 09:58:28;;;;;;;30.40;17.35;;;9.60;99.90;;;;;;6311379;22;40710;-77
2023/02/04 10:01:04;;;;;;;25.08;16.63;;;9.50;99.90;;;;;;6310280;22;39000;-76
2023/02/04 10:03:30;;;;;;;26.73;17.10;;;9.50;99.90;;;;;;6348703;22;47663;-78
2023/02/04 10:05:56;;;;;;;26.15;17.90;;;9.50;99.90;;;;;;6342291;22;36241;-77
2023/02/04 10:08:29;;;;;;;24.83;15.93;;;9.50;99.90;;;;;;6342243;22;37343;-76
2023/02/04 10:10:55;;;;;;;26.48;16.55;;;9.60;99.90;;;;;;6340527;22;38303;-77
2023/02/04 10:13:31;;;;;;;30.40;19.20;;;9.50;99.90;;;;;;6333856;22;36716;-77
2023/02/04 10:15:58;;;;;;;34.87;21.23;;;9.50;99.90;;;;;;6337314;22;37482;-76
2023/02/04 10:18:32;;;;;;;32.73;19.77;;;9.50;99.90;;;;;;6332651;22;38578;-76
2023/02/04 10:21:24;;;;;;;32.43;19.80;;;9.40;99.90;;;;;;6339203;22;38834;-76
2023/02/04 10:23:54;;;;;;;26.77;17.63;;;9.40;99.90;;;;;;6326057;22;48275;-77
2023/02/04 10:26:22;;;;;;;26.63;16.27;;;9.50;99.90;;;;;;6335368;22;36508;-77
2023/02/04 10:28:50;;;;;;;33.43;17.87;;;9.40;99.90;;;;;;6337496;22;39036;-76
2023/02/04 10:31:35;;;;;;;30.77;17.53;;;9.40;99.90;;;;;;6336536;22;39431;-75
2023/02/04 10:34:16;;;;;;;25.70;15.77;;;9.40;99.90;;;;;;6333730;22;39084;-76
2023/02/04 10:36:44;;;;;;;29.27;17.10;;;9.50;99.90;;;;;;6334607;22;37287;-77
2023/02/04 10:39:15;;;;;;;26.63;14.87;;;9.40;99.90;;;;;;6335603;22;38906;-75
2023/02/04 10:41:45;;;;;;;31.57;16.47;;;9.40;99.90;;;;;;6336573;22;38240;-76
2023/02/04 10:44:14;;;;;;;27.70;15.20;;;9.30;99.90;;;;;;6338038;22;37810;-77
2023/02/04 10:46:41;;;;;;;29.60;15.57;;;9.40;99.90;;;;;;6337247;22;38137;-76
2023/02/04 10:49:21;;;;;;;24.57;14.63;;;9.40;99.90;;;;;;6337547;22;38018;-76
2023/02/04 10:51:49;;;;;;;25.43;15.23;;;9.40;99.90;;;;;;6337051;22;36956;-76
2023/02/04 10:54:30;;;;;;;27.70;15.37;;;9.40;99.90;;;;;;6335445;22;38338;-76
2023/02/04 10:56:58;;;;;;;26.80;15.47;;;9.40;99.90;;;;;;6336380;22;36836;-75
2023/02/04 10:59:26;;;;;;;26.00;15.10;;;9.40;99.90;;;;;;6341559;22;39085;-77
2023/02/04 11:01:58;;;;;;;24.80;15.50;;;9.40;99.90;;;;;;6343253;22;38354;-77
2023/02/04 11:04:25;;;;;;;23.27;13.50;;;9.40;99.90;;;;;;6314395;22;37574;-77
2023/02/04 11:06:52;;;;;;;23.90;14.50;;;9.30;99.90;;;;;;6309536;22;37444;-77
2023/02/04 11:09:18;;;;;;;25.77;14.50;;;9.30;99.90;;;;;;6310588;22;39037;-78
2023/02/04 11:11:47;;;;;;;35.20;20.97;;;9.30;99.90;;;;;;6310066;22;38542;-77
2023/02/04 11:14:28;;;;;;;73.43;40.37;;;9.30;99.90;;;;;;6306614;22;37139;-77
2023/02/04 11:17:00;;;;;;;38.60;20.30;;;9.30;99.90;;;;;;6309579;22;37514;-77
2023/02/04 11:19:37;;;;;;;31.13;18.20;;;9.30;99.90;;;;;;6306765;22;38151;-77
2023/02/04 11:22:37;;;;;;;23.63;14.70;;;9.30;99.90;;;;;;6306962;22;37766;-81
2023/02/04 11:25:03;;;;;;;22.90;11.77;;;9.40;99.90;;;;;;6310153;22;38345;-77
2023/02/04 11:27:38;;;;;;;22.80;11.63;;;9.30;99.90;;;;;;6301321;22;37870;-77
2023/02/04 11:30:21;;;;;;;22.23;10.60;;;9.40;99.90;;;;;;6306850;22;38990;-77
2023/02/04 11:33:04;;;;;;;;;;;9.40;99.90;;;;;;6312079;22;49694;-78
2023/02/04 11:35:30;;;;;;;17.38;8.95;;;9.40;99.90;;;;;;6329793;22;47584;-77
2023/02/04 11:37:57;;;;;;;20.93;10.23;;;9.40;99.90;;;;;;6310327;22;35550;-78
2023/02/04 11:40:27;;;;;;;22.57;10.80;;;9.50;99.90;;;;;;6308800;22;38918;-83
2023/02/04 11:43:14;;;;;;;19.97;10.70;;;9.40;99.90;;;;;;6384671;22;38659;-82
2023/02/04 11:45:42;;;;;;;20.47;9.80;;;9.50;99.90;;;;;;6393936;22;48838;-82
2023/02/04 11:48:17;;;;;;;19.63;9.27;;;9.50;99.90;;;;;;6357636;22;37963;-83
2023/02/04 11:51:15;;;;;;;19.50;10.30;;;9.40;99.90;;;;;;6379906;22;40306;-82
2023/02/04 11:53:53;;;;;;;18.37;10.77;;;9.40;99.90;;;;;;6366959;22;47537;-81
2023/02/04 11:56:36;;;;;;;19.47;10.80;;;9.50;99.90;;;;;;6358377;22;39568;-80
2023/02/04 11:59:05;;;;;;;19.17;11.43;;;9.50;99.90;;;;;;6363521;22;37882;-82
2023/02/04 12:01:43;;;;;;;15.23;9.07;;;9.50;99.90;;;;;;6366945;22;38341;-79
2023/02/04 12:04:23;;;;;;;15.40;9.43;;;9.60;99.90;;;;;;6322929;22;38404;-82
2023/02/04 12:07:02;;;;;;;18.53;9.33;;;9.60;99.90;;;;;;6365239;22;37749;-81
2023/02/04 12:09:45;;;;;;;18.03;6.97;;;9.70;99.90;;;;;;6346234;22;47158;-80
2023/02/04 12:12:23;;;;;;;11.60;4.87;;;9.60;99.90;;;;;;6392514;22;38664;-80
2023/02/04 12:15:18;;;;;;;16.07;6.43;;;9.60;99.90;;;;;;6391670;22;38276;-80
2023/02/04 12:17:46;;;;;;;15.17;6.00;;;9.60;99.90;;;;;;6305088;22;49004;-80
2023/02/04 12:20:18;;;;;;;16.30;6.97;;;9.50;99.90;;;;;;6349849;22;37851;-82
2023/02/04 12:22:45;;;;;;;16.38;7.10;;;9.50;99.90;;;;;;6337997;22;39276;-82
2023/02/04 12:25:34;;;;;;;10.87;5.57;;;9.50;99.90;;;;;;6337715;22;37540;-82
2023/02/04 12:28:03;;;;;;;14.40;5.17;;;9.60;99.90;;;;;;6375043;22;38789;-82
2023/02/04 12:30:31;;;;;;;17.23;6.07;;;9.60;99.90;;;;;;6332180;22;50305;-80
2023/02/04 12:32:57;;;;;;;13.90;6.83;;;9.50;99.90;;;;;;6391341;22;38889;-81
2023/02/04 12:35:24;;;;;;;17.40;5.93;;;9.50;99.90;;;;;;6377233;22;39136;-81
2023/02/04 12:37:51;;;;;;;16.73;6.47;;;9.50;99.90;;;;;;6377500;22;38218;-81
2023/02/04 12:40:21;;;;;;;14.73;6.80;;;9.50;99.90;;;;;;6385171;22;37898;-81
2023/02/04 12:42:48;;;;;;;14.87;7.23;;;9.70;99.90;;;;;;6365041;22;38551;-81
2023/02/04 12:45:16;;;;;;;16.90;6.83;;;9.80;99.90;;;;;;6381810;22;37731;-81
2023/02/04 12:47:44;;;;;;;16.00;7.30;;;9.80;99.90;;;;;;6357837;22;37094;-81
2023/02/04 12:50:13;;;;;;;20.47;7.80;;;9.90;99.90;;;;;;6391466;22;38205;-81